createdAt,value
2017-12-19T00:01:13.353Z,31.90
2017-12-19T00:03:40.831Z,28.15
2017-12-19T00:06:08.256Z,34.30
2017-12-19T00:08:36.485Z,31.70
2017-12-19T00:11:03.944Z,27.62
2017-12-19T00:13:32.137Z,29.52
2017-12-19T00:15:59.703Z,37.92
2017-12-19T00:18:27.865Z,31.92
2017-12-19T00:20:56.080Z,30.88
2017-12-19T00:23:23.500Z,30.95
2017-12-19T00:25:51.020Z,32.83
2017-12-19T00:28:18.460Z,35.78
2017-12-19T00:30:46.675Z,35.22
2017-12-19T00:33:14.141Z,33.50
2017-12-19T00:35:41.611Z,29.83
2017-12-19T00:38:09.079Z,31.80
2017-12-19T00:40:36.512Z,33.50
2017-12-19T00:43:04.885Z,30.48
2017-12-19T00:45:32.360Z,31.30
2017-12-19T00:47:59.887Z,32.05
2017-12-19T00:50:27.299Z,32.25
2017-12-19T00:52:54.723Z,38.05
2017-12-19T00:55:22.197Z,41.70
2017-12-19T00:57:49.659Z,33.65
2017-12-19T01:00:17.843Z,29.80
2017-12-19T01:02:46.193Z,32.88
2017-12-19T01:05:13.614Z,32.35
2017-12-19T01:07:41.056Z,34.05
2017-12-19T01:10:09.244Z,31.02
2017-12-19T01:12:37.431Z,33.65
2017-12-19T01:15:05.739Z,28.15
2017-12-19T01:17:33.940Z,33.58
2017-12-19T01:20:01.400Z,34.17
2017-12-19T01:22:28.976Z,33.92
2017-12-19T01:24:57.209Z,35.08
2017-12-19T01:27:24.631Z,33.60
2017-12-19T01:29:52.820Z,30.60
2017-12-19T01:32:20.292Z,39.30
2017-12-19T01:34:47.724Z,35.33
2017-12-19T01:37:16.058Z,34.55
2017-12-19T01:39:43.506Z,35.28
2017-12-19T01:42:10.932Z,35.05
2017-12-19T01:44:39.276Z,34.20
2017-12-19T01:47:06.755Z,36.20
2017-12-19T01:49:34.200Z,32.92
2017-12-19T01:52:02.379Z,33.20
2017-12-19T01:54:30.597Z,32.40
2017-12-19T01:56:58.164Z,34.75
2017-12-19T01:59:26.345Z,35.25
2017-12-19T02:01:53.820Z,33.22
2017-12-19T02:04:21.536Z,36.15
2017-12-19T02:06:48.961Z,35.63
2017-12-19T02:09:16.386Z,36.92
2017-12-19T02:11:43.803Z,34.22
2017-12-19T02:14:11.252Z,32.65
2017-12-19T02:16:42.236Z,30.42
2017-12-19T02:19:09.712Z,33.25
2017-12-19T02:21:37.256Z,32.15
2017-12-19T02:24:04.689Z,29.80
2017-12-19T02:26:32.205Z,34.20
2017-12-19T02:28:59.659Z,32.30
2017-12-19T02:31:27.168Z,30.60
2017-12-19T02:33:54.668Z,33.50
2017-12-19T02:36:22.092Z,34.65
2017-12-19T02:38:49.549Z,30.00
2017-12-19T02:41:17.029Z,33.60
2017-12-19T02:43:44.456Z,33.17
2017-12-19T02:46:12.684Z,32.78
2017-12-19T02:48:40.148Z,33.92
2017-12-19T02:51:07.625Z,30.65
2017-12-19T02:53:35.076Z,32.35
2017-12-19T02:56:02.657Z,34.08
2017-12-19T02:58:30.946Z,37.85
2017-12-19T03:00:59.137Z,34.60
2017-12-19T03:03:26.580Z,35.95
2017-12-19T03:05:54.896Z,38.88
2017-12-19T03:08:22.344Z,34.15
2017-12-19T03:10:49.768Z,37.17
2017-12-19T03:13:17.200Z,35.50
2017-12-19T03:15:44.675Z,34.80
2017-12-19T03:18:12.104Z,35.00
2017-12-19T03:20:39.523Z,34.05
2017-12-19T03:23:07.999Z,32.58
2017-12-19T03:25:36.184Z,33.83
2017-12-19T03:28:03.604Z,33.28
2017-12-19T03:30:31.037Z,36.17
2017-12-19T03:32:59.416Z,33.90
2017-12-19T03:35:26.997Z,33.10
2017-12-19T03:37:54.460Z,30.58
2017-12-19T03:40:21.888Z,31.45
2017-12-19T03:42:51.035Z,33.25
2017-12-19T03:45:18.515Z,33.08
2017-12-19T03:47:45.960Z,35.10
2017-12-19T03:50:13.380Z,33.28
2017-12-19T03:52:41.193Z,33.97
2017-12-19T03:55:08.600Z,32.15
2017-12-19T03:57:36.056Z,33.58
2017-12-19T04:00:03.631Z,30.80
2017-12-19T04:02:31.796Z,33.80
2017-12-19T04:04:59.979Z,31.70
2017-12-19T04:07:28.196Z,29.58
2017-12-19T04:09:55.660Z,31.62
2017-12-19T04:12:23.103Z,32.28
2017-12-19T04:14:51.360Z,34.22
2017-12-19T04:17:18.884Z,36.53
2017-12-19T04:19:46.461Z,34.58
2017-12-19T04:22:14.644Z,28.90
2017-12-19T04:24:42.060Z,32.92
2017-12-19T04:27:09.492Z,32.05
2017-12-19T04:29:37.062Z,33.00
2017-12-19T04:32:05.376Z,28.83
2017-12-19T04:34:32.804Z,32.20
2017-12-19T04:37:00.292Z,31.00
2017-12-19T04:39:28.476Z,27.58
2017-12-19T04:41:55.896Z,33.40
2017-12-19T04:44:23.419Z,30.08
2017-12-19T04:46:51.584Z,33.05
2017-12-19T04:49:19.771Z,31.42
2017-12-19T04:51:47.981Z,32.75
2017-12-19T04:54:15.387Z,30.12
2017-12-19T04:56:42.880Z,28.08
2017-12-19T04:59:11.092Z,33.70
2017-12-19T05:01:38.575Z,29.95
2017-12-19T05:04:06.017Z,30.23
2017-12-19T05:06:34.200Z,31.40
2017-12-19T05:09:01.696Z,32.58
2017-12-19T05:11:29.172Z,32.10
2017-12-19T05:13:56.600Z,27.70
2017-12-19T05:16:24.108Z,27.37
2017-12-19T05:18:51.684Z,27.23
2017-12-19T05:21:19.152Z,27.67
2017-12-19T05:23:46.567Z,26.45
2017-12-19T05:26:14.108Z,27.73
2017-12-19T05:28:41.531Z,28.85
2017-12-19T05:31:09.732Z,31.05
2017-12-19T05:33:37.216Z,29.55
2017-12-19T05:36:04.649Z,31.27
2017-12-19T05:38:32.260Z,35.25
2017-12-19T05:41:00.441Z,32.17
2017-12-19T05:43:27.885Z,33.60
2017-12-19T05:45:56.100Z,32.63
2017-12-19T05:48:23.525Z,36.25
2017-12-19T05:50:51.088Z,32.50
2017-12-19T05:53:18.512Z,36.75
2017-12-19T05:55:46.084Z,32.72
2017-12-19T05:58:14.292Z,33.25
2017-12-19T06:00:41.728Z,33.28
2017-12-19T06:03:09.313Z,35.08
2017-12-19T06:05:37.496Z,33.58
2017-12-19T06:08:04.980Z,32.10
2017-12-19T06:10:32.443Z,31.42
2017-12-19T06:13:00.877Z,31.67
2017-12-19T06:15:28.413Z,32.25
2017-12-19T06:17:55.872Z,27.67
2017-12-19T06:20:23.364Z,31.90
2017-12-19T06:22:51.789Z,34.78
2017-12-19T06:25:19.212Z,32.58
2017-12-19T06:27:46.639Z,31.45
2017-12-19T06:30:14.880Z,34.10
2017-12-19T06:32:42.743Z,28.80
2017-12-19T06:35:10.212Z,33.55
2017-12-19T06:37:37.676Z,32.47
2017-12-19T06:40:05.112Z,30.45
2017-12-19T06:42:32.537Z,31.48
2017-12-19T06:44:59.991Z,32.65
2017-12-19T06:47:27.416Z,28.77
2017-12-19T06:49:54.865Z,32.53
2017-12-19T06:52:22.402Z,29.55
2017-12-19T06:54:49.867Z,30.98
2017-12-19T06:57:17.296Z,30.52
2017-12-19T06:59:44.804Z,28.95
2017-12-19T07:02:12.377Z,28.73
2017-12-19T07:04:39.790Z,30.45
2017-12-19T07:07:07.224Z,31.23
2017-12-19T07:09:34.660Z,30.98
2017-12-19T07:12:02.844Z,36.00
2017-12-19T07:14:31.068Z,33.13
2017-12-19T07:16:58.537Z,39.63
2017-12-19T07:19:25.955Z,31.40
2017-12-19T07:21:53.465Z,37.85
2017-12-19T07:24:20.961Z,34.92
2017-12-19T07:26:48.408Z,32.97
2017-12-19T07:29:15.836Z,32.47
2017-12-19T07:31:43.257Z,36.53
2017-12-19T07:34:10.684Z,37.28
2017-12-19T07:36:38.896Z,38.10
2017-12-19T07:39:06.319Z,41.40
2017-12-19T07:41:33.844Z,39.60
2017-12-19T07:44:01.304Z,38.53
2017-12-19T07:46:28.724Z,38.20
2017-12-19T07:48:56.196Z,33.45
2017-12-19T07:51:23.604Z,38.58
2017-12-19T07:53:51.073Z,34.45
2017-12-19T07:56:18.564Z,34.03
2017-12-19T07:58:46.124Z,35.13
2017-12-19T08:01:13.600Z,38.05
2017-12-19T08:03:41.084Z,38.30
2017-12-19T08:06:08.523Z,40.22
2017-12-19T08:08:36.008Z,40.35
2017-12-19T08:11:03.512Z,35.30
2017-12-19T08:13:30.933Z,34.90
2017-12-19T08:15:58.413Z,36.22
2017-12-19T08:18:25.888Z,38.67
2017-12-19T08:20:53.359Z,36.05
2017-12-19T08:23:20.825Z,39.50
2017-12-19T08:25:48.997Z,36.03
2017-12-19T08:28:16.484Z,36.45
2017-12-19T08:30:43.908Z,37.65
2017-12-19T08:33:11.336Z,40.70
2017-12-19T08:35:38.752Z,38.95
2017-12-19T08:38:06.969Z,33.75
2017-12-19T08:40:35.149Z,37.05
2017-12-19T08:43:03.360Z,37.17
2017-12-19T08:45:30.775Z,37.22
2017-12-19T08:47:58.227Z,36.08
2017-12-19T08:50:25.624Z,36.47
2017-12-19T08:52:53.860Z,35.22
2017-12-19T08:55:21.518Z,36.13
2017-12-19T08:57:48.949Z,40.63
2017-12-19T09:00:16.470Z,39.38
2017-12-19T09:02:44.846Z,38.63
2017-12-19T09:05:13.033Z,33.78
2017-12-19T09:07:40.512Z,40.67
2017-12-19T09:10:07.926Z,36.03
2017-12-19T09:12:35.358Z,34.33
2017-12-19T09:15:02.780Z,38.28
2017-12-19T09:17:30.976Z,35.70
2017-12-19T09:19:59.189Z,36.92
2017-12-19T09:22:26.656Z,32.97
2017-12-19T09:24:54.105Z,30.95
2017-12-19T09:27:21.532Z,33.88
2017-12-19T09:29:49.062Z,36.55
2017-12-19T09:32:16.496Z,31.33
2017-12-19T09:34:44.716Z,38.38
2017-12-19T09:37:12.199Z,36.88
2017-12-19T09:39:39.628Z,35.38
2017-12-19T09:42:07.821Z,44.13
2017-12-19T09:44:36.025Z,55.63
2017-12-19T09:47:03.445Z,46.00
2017-12-19T09:49:30.887Z,42.88
2017-12-19T09:51:58.298Z,34.90
2017-12-19T09:54:25.736Z,34.75
2017-12-19T09:56:53.167Z,35.15
2017-12-19T09:59:20.597Z,34.90
2017-12-19T10:01:48.114Z,30.62
2017-12-19T10:04:15.600Z,32.00
2017-12-19T10:06:43.065Z,31.90
2017-12-19T10:09:10.527Z,30.98
2017-12-19T10:11:37.996Z,30.12
2017-12-19T10:14:05.480Z,28.62
2017-12-19T10:16:32.936Z,28.58
2017-12-19T10:19:00.361Z,29.95
2017-12-19T10:21:27.789Z,29.75
2017-12-19T10:23:55.258Z,28.55
2017-12-19T10:26:22.664Z,28.90
2017-12-19T10:28:50.108Z,31.55
2017-12-19T10:31:17.527Z,32.28
2017-12-19T10:33:45.716Z,31.33
2017-12-19T10:36:13.912Z,32.05
2017-12-19T10:38:41.328Z,30.40
2017-12-19T10:41:08.776Z,31.27
2017-12-19T10:43:36.184Z,33.10
2017-12-19T10:46:03.617Z,30.55
2017-12-19T10:48:31.068Z,31.00
2017-12-19T10:50:58.501Z,29.77
2017-12-19T10:53:26.735Z,28.52
2017-12-19T10:55:54.201Z,30.62
2017-12-19T10:58:21.749Z,28.33
2017-12-19T11:00:49.168Z,31.23
2017-12-19T11:03:16.709Z,31.65
2017-12-19T11:05:44.128Z,31.62
2017-12-19T11:08:11.644Z,31.50
2017-12-19T11:10:39.064Z,27.67
2017-12-19T11:13:06.587Z,28.62
2017-12-19T11:15:34.055Z,27.70
2017-12-19T11:18:01.463Z,28.35
2017-12-19T11:20:29.027Z,30.17
2017-12-19T11:22:56.469Z,31.08
2017-12-19T11:25:23.935Z,29.83
2017-12-19T11:27:51.560Z,27.73
2017-12-19T11:30:18.972Z,28.48
2017-12-19T11:32:47.324Z,26.08
2017-12-19T11:35:14.845Z,27.02
2017-12-19T11:37:42.276Z,32.35
2017-12-19T11:40:10.462Z,29.67
2017-12-19T11:42:38.656Z,29.87
2017-12-19T11:45:06.839Z,26.17
2017-12-19T11:47:35.063Z,26.73
2017-12-19T11:50:02.476Z,28.20
2017-12-19T11:52:30.008Z,30.02
2017-12-19T11:54:57.441Z,26.55
2017-12-19T11:57:25.652Z,26.20
2017-12-19T11:59:53.092Z,28.52
2017-12-19T12:02:21.312Z,27.95
2017-12-19T12:04:48.734Z,25.10
2017-12-19T12:07:16.243Z,29.40
2017-12-19T12:09:43.676Z,27.35
2017-12-19T12:12:11.183Z,24.65
2017-12-19T12:14:38.653Z,28.42
2017-12-19T12:17:07.045Z,27.55
2017-12-19T12:19:35.232Z,27.40
2017-12-19T12:22:02.656Z,30.37
2017-12-19T12:24:30.171Z,28.92
2017-12-19T12:26:58.335Z,28.05
2017-12-19T12:29:26.525Z,26.80
2017-12-19T12:31:54.834Z,31.98
2017-12-19T12:34:22.264Z,33.20
2017-12-19T12:36:49.721Z,26.42
2017-12-19T12:39:17.141Z,30.42
2017-12-19T12:41:44.612Z,29.50
2017-12-19T12:44:12.032Z,30.08
2017-12-19T12:46:39.461Z,31.98
2017-12-19T12:49:07.020Z,28.45
2017-12-19T12:51:35.192Z,27.83
2017-12-19T12:54:02.621Z,28.95
2017-12-19T12:56:30.147Z,28.50
2017-12-19T12:58:57.572Z,32.72
2017-12-19T13:01:25.084Z,28.52
2017-12-19T13:03:52.508Z,26.48
2017-12-19T13:06:19.952Z,30.17
2017-12-19T13:08:47.400Z,28.30
2017-12-19T13:11:14.840Z,26.25
2017-12-19T13:13:43.044Z,27.67
2017-12-19T13:16:10.562Z,29.05
2017-12-19T13:18:37.948Z,25.27
2017-12-19T13:21:05.371Z,26.75
2017-12-19T13:23:32.854Z,25.67
2017-12-19T13:26:00.301Z,29.73
2017-12-19T13:28:27.800Z,24.92
2017-12-19T13:30:55.235Z,27.65
2017-12-19T13:33:22.711Z,25.70
2017-12-19T13:35:50.133Z,26.10
2017-12-19T13:38:18.323Z,28.20
2017-12-19T13:40:46.516Z,26.40
2017-12-19T13:43:14.796Z,24.55
2017-12-19T13:45:42.208Z,25.23
2017-12-19T13:48:09.679Z,28.27
2017-12-19T13:50:37.084Z,31.17
2017-12-19T13:53:04.564Z,25.00
2017-12-19T13:55:31.992Z,29.15
2017-12-19T13:57:59.556Z,30.27
2017-12-19T14:00:27.032Z,27.23
2017-12-19T14:02:54.452Z,28.95
2017-12-19T14:05:21.884Z,28.05
2017-12-19T14:07:49.303Z,28.80
2017-12-19T14:10:17.516Z,30.62
2017-12-19T14:12:44.985Z,27.27
2017-12-19T14:15:12.423Z,31.42
2017-12-19T14:17:40.642Z,26.50
2017-12-19T14:20:08.117Z,27.40
2017-12-19T14:22:35.536Z,29.65
2017-12-19T14:25:03.028Z,26.50
2017-12-19T14:27:31.223Z,28.02
2017-12-19T14:29:59.419Z,24.98
2017-12-19T14:32:26.904Z,28.08
2017-12-19T14:34:54.400Z,27.42
2017-12-19T14:37:21.839Z,23.40
2017-12-19T14:39:49.309Z,22.20
2017-12-19T14:42:16.774Z,25.30
2017-12-19T14:44:44.228Z,24.77
2017-12-19T14:47:12.513Z,21.20
2017-12-19T14:49:40.703Z,22.60
2017-12-19T14:52:08.131Z,23.60
2017-12-19T14:54:35.586Z,19.48
2017-12-19T14:57:03.036Z,27.80
2017-12-19T14:59:30.498Z,22.92
2017-12-19T15:01:57.923Z,22.30
2017-12-19T15:04:25.368Z,22.00
2017-12-19T15:06:52.792Z,24.30
2017-12-19T15:09:20.379Z,22.42
2017-12-19T15:11:47.852Z,23.05
2017-12-19T15:14:15.272Z,24.65
2017-12-19T15:16:42.788Z,24.87
2017-12-19T15:19:10.263Z,24.12
2017-12-19T15:21:37.733Z,25.62
2017-12-19T15:24:05.200Z,25.67
2017-12-19T15:26:32.635Z,29.42
2017-12-19T15:29:00.878Z,25.52
2017-12-19T15:31:28.292Z,24.15
2017-12-19T15:33:56.480Z,26.67
2017-12-19T15:36:24.680Z,29.70
2017-12-19T15:38:52.121Z,28.02
2017-12-19T15:41:19.547Z,32.88
2017-12-19T15:43:47.004Z,31.27
2017-12-19T15:46:15.228Z,26.85
2017-12-19T15:48:42.652Z,28.40
2017-12-19T15:51:10.084Z,29.75
2017-12-19T15:53:37.615Z,28.15
2017-12-19T15:56:05.041Z,29.75
2017-12-19T15:58:33.255Z,29.67
2017-12-19T16:01:01.420Z,29.95
2017-12-19T16:03:29.632Z,28.80
2017-12-19T16:05:57.095Z,33.15
2017-12-19T16:08:25.268Z,30.45
2017-12-19T16:10:53.463Z,29.12
2017-12-19T16:13:20.892Z,29.77
2017-12-19T16:15:48.514Z,29.10
2017-12-19T16:18:16.085Z,30.77
2017-12-19T16:20:44.284Z,29.05
2017-12-19T16:23:11.708Z,32.05
2017-12-19T16:25:39.928Z,27.90
2017-12-19T16:28:07.366Z,31.73
2017-12-19T16:30:35.569Z,29.33
2017-12-19T16:33:03.781Z,35.03
2017-12-19T16:35:31.192Z,34.25
2017-12-19T16:37:58.718Z,30.40
2017-12-19T16:40:26.136Z,29.00
2017-12-19T16:42:53.654Z,30.10
2017-12-19T16:45:21.848Z,34.20
2017-12-19T16:47:49.268Z,31.08
2017-12-19T16:50:16.696Z,34.95
2017-12-19T16:52:45.113Z,33.47
2017-12-19T16:55:12.568Z,31.87
2017-12-19T16:57:39.980Z,31.75
2017-12-19T17:00:08.200Z,33.25
2017-12-19T17:02:35.677Z,30.25
2017-12-19T17:05:03.084Z,34.15
2017-12-19T17:07:30.707Z,36.42
2017-12-19T17:09:58.976Z,31.65
2017-12-19T17:12:27.296Z,34.38
2017-12-19T17:14:54.741Z,32.03
2017-12-19T17:17:22.951Z,34.35
2017-12-19T17:19:50.375Z,32.55
2017-12-19T17:22:18.603Z,33.60
2017-12-19T17:24:46.067Z,33.97
2017-12-19T17:27:13.535Z,37.30
2017-12-19T17:29:41.821Z,33.75
2017-12-19T17:32:09.302Z,33.92
2017-12-19T17:34:36.768Z,33.40
2017-12-19T17:37:04.191Z,33.97
2017-12-19T17:39:31.677Z,33.95
2017-12-19T17:41:59.088Z,33.05
2017-12-19T17:44:26.535Z,31.70
2017-12-19T17:46:53.972Z,35.17
2017-12-19T17:49:21.388Z,35.05
2017-12-19T17:51:48.847Z,35.35
2017-12-19T17:54:16.268Z,33.70
2017-12-19T17:56:43.719Z,30.52
2017-12-19T17:59:11.168Z,35.53
2017-12-19T18:01:38.752Z,32.80
2017-12-19T18:04:06.172Z,32.15
2017-12-19T18:06:34.384Z,32.30
2017-12-19T18:09:01.861Z,33.17
2017-12-19T18:11:29.357Z,36.17
2017-12-19T18:13:56.853Z,32.00
2017-12-19T18:16:24.236Z,36.80
2017-12-19T18:18:52.433Z,30.70
2017-12-19T18:21:19.914Z,37.60
2017-12-19T18:23:48.080Z,30.45
2017-12-19T18:26:16.264Z,39.15
2017-12-19T18:28:44.488Z,41.95
2017-12-19T18:31:11.904Z,33.10
2017-12-19T18:33:40.845Z,37.00
2017-12-19T18:36:08.264Z,36.75
2017-12-19T18:38:35.709Z,40.47
2017-12-19T18:41:03.128Z,37.53
2017-12-19T18:43:31.320Z,36.33
2017-12-19T18:45:59.506Z,38.15
2017-12-19T18:48:27.717Z,39.00
2017-12-19T18:50:55.892Z,37.78
2017-12-19T18:53:24.197Z,39.97
2017-12-19T18:55:52.388Z,36.13
2017-12-19T18:58:19.844Z,38.78
2017-12-19T19:00:47.355Z,38.80
2017-12-19T19:03:14.818Z,41.90
2017-12-19T19:05:42.240Z,33.70
2017-12-19T19:08:10.432Z,36.67
2017-12-19T19:10:38.640Z,41.22
2017-12-19T19:13:07.026Z,38.55
2017-12-19T19:15:35.201Z,38.90
2017-12-19T19:18:02.680Z,38.50
2017-12-19T19:20:30.152Z,35.83
2017-12-19T19:22:58.312Z,36.33
2017-12-19T19:25:26.500Z,37.70
2017-12-19T19:27:54.745Z,34.97
2017-12-19T19:30:22.160Z,37.70
2017-12-19T19:32:51.396Z,37.13
2017-12-19T19:35:18.963Z,41.20
2017-12-19T19:37:46.381Z,38.53
2017-12-19T19:40:13.933Z,39.70
2017-12-19T19:42:41.673Z,42.33
2017-12-19T19:45:09.832Z,38.28
2017-12-19T19:47:38.084Z,36.33
2017-12-19T19:50:05.508Z,40.08
2017-12-19T19:52:33.733Z,41.92
2017-12-19T19:55:01.177Z,37.40
2017-12-19T19:57:28.648Z,36.30
2017-12-19T19:59:56.100Z,39.10
2017-12-19T20:02:24.313Z,36.92
2017-12-19T20:04:51.900Z,36.80
2017-12-19T20:07:19.303Z,33.50
2017-12-19T20:09:46.820Z,34.65
2017-12-19T20:12:14.287Z,36.40
2017-12-19T20:14:42.447Z,32.47
2017-12-19T20:17:10.659Z,31.30
2017-12-19T20:19:38.079Z,30.67
2017-12-19T20:22:05.519Z,32.80
2017-12-19T20:24:32.971Z,37.60
2017-12-19T20:27:01.143Z,33.63
2017-12-19T20:29:28.580Z,31.23
2017-12-19T20:31:56.004Z,31.30
2017-12-19T20:34:23.457Z,34.33
2017-12-19T20:36:50.872Z,36.35
2017-12-19T20:39:18.296Z,28.80
2017-12-19T20:41:45.767Z,31.25
2017-12-19T20:44:13.221Z,30.23
2017-12-19T20:46:41.429Z,32.40
2017-12-19T20:49:08.904Z,29.08
2017-12-19T20:51:36.328Z,26.15
2017-12-19T20:54:03.938Z,27.77
2017-12-19T20:56:32.102Z,28.30
2017-12-19T20:59:00.317Z,31.05
2017-12-19T21:01:27.779Z,30.15
2017-12-19T21:03:55.208Z,30.40
2017-12-19T21:06:22.723Z,28.17
2017-12-19T21:08:50.148Z,24.30
2017-12-19T21:11:17.596Z,26.40
2017-12-19T21:13:45.011Z,29.80
2017-12-19T21:16:12.495Z,26.65
2017-12-19T21:18:39.970Z,27.92
2017-12-19T21:21:07.409Z,27.80
2017-12-19T21:23:35.600Z,26.40
2017-12-19T21:26:03.816Z,27.33
2017-12-19T21:28:31.240Z,24.55
2017-12-19T21:30:58.664Z,22.80
2017-12-19T21:33:26.124Z,23.50
2017-12-19T21:35:53.556Z,22.45
2017-12-19T21:38:21.939Z,23.92
2017-12-19T21:40:49.312Z,24.42
2017-12-19T21:43:17.526Z,22.90
2017-12-19T21:45:45.717Z,24.30
2017-12-19T21:48:13.136Z,20.27
2017-12-19T21:50:40.660Z,21.70
2017-12-19T21:53:08.127Z,24.87
2017-12-19T21:55:36.292Z,23.30
2017-12-19T21:58:04.506Z,23.75
2017-12-19T22:00:31.924Z,24.90
2017-12-19T22:03:00.886Z,27.48
2017-12-19T22:05:28.303Z,29.85
2017-12-19T22:07:56.499Z,26.65
2017-12-19T22:10:24.822Z,31.05
2017-12-19T22:12:52.996Z,28.17
2017-12-19T22:15:20.412Z,25.40
2017-12-19T22:17:47.956Z,26.25
2017-12-19T22:20:15.418Z,27.60
2017-12-19T22:22:42.840Z,29.58
2017-12-19T22:25:10.264Z,29.30
2017-12-19T22:27:37.693Z,29.05
2017-12-19T22:30:05.916Z,28.38
2017-12-19T22:32:33.345Z,28.12
2017-12-19T22:35:01.531Z,26.92
2017-12-19T22:37:28.956Z,27.90
2017-12-19T22:39:56.444Z,25.12
2017-12-19T22:42:23.867Z,26.75
2017-12-19T22:44:51.300Z,26.98
2017-12-19T22:47:18.717Z,31.77
2017-12-19T22:49:46.140Z,26.17
2017-12-19T22:52:13.568Z,26.35
2017-12-19T22:54:40.996Z,29.90
2017-12-19T22:57:09.220Z,28.70
2017-12-19T22:59:36.640Z,25.88
2017-12-19T23:02:04.860Z,26.25
2017-12-19T23:04:32.332Z,23.98
2017-12-19T23:06:59.752Z,24.58
2017-12-19T23:09:27.185Z,28.98
2017-12-19T23:11:54.640Z,30.73
2017-12-19T23:14:22.088Z,25.83
2017-12-19T23:16:50.276Z,24.95
2017-12-19T23:19:18.464Z,25.80
2017-12-19T23:21:45.900Z,27.00
2017-12-19T23:24:13.424Z,28.23
2017-12-19T23:26:40.900Z,28.85
2017-12-19T23:29:08.320Z,25.02
2017-12-19T23:31:35.835Z,29.55
2017-12-19T23:34:03.308Z,26.00
2017-12-19T23:36:30.773Z,25.30
2017-12-19T23:38:58.361Z,26.75
2017-12-19T23:41:25.769Z,28.42
2017-12-19T23:46:20.944Z,29.75
2017-12-19T23:48:48.428Z,31.17
2017-12-19T23:51:15.902Z,28.98
2017-12-19T23:53:43.308Z,27.48
2017-12-19T23:56:10.937Z,25.88
2017-12-19T23:58:40.024Z,28.52
